sensor_id;sensor_type;location;lat;lon;timestamp;pressure;altitude;pressure_sealevel;temperature;humidity
58471;BME280;44258;51.288;12.068;2022-10-16T00:01:43;100116.41;;;16.68;61.75
58471;BME280;44258;51.288;12.068;2022-10-16T00:04:10;100122.09;;;16.65;61.65
58471;BME280;44258;51.288;12.068;2022-10-16T00:06:36;100125.78;;;16.64;61.64
58471;BME280;44258;51.288;12.068;2022-10-16T00:09:03;100120.88;;;16.58;61.62
58471;BME280;44258;51.288;12.068;2022-10-16T00:11:33;100126.72;;;16.53;61.98
58471;BME280;44258;51.288;12.068;2022-10-16T00:14:05;100134.97;;;16.52;62.14
58471;BME280;44258;51.288;12.068;2022-10-16T00:16:33;100136.44;;;16.56;62.25
58471;BME280;44258;51.288;12.068;2022-10-16T00:19:00;100132.88;;;16.56;62.16
58471;BME280;44258;51.288;12.068;2022-10-16T00:21:28;100133.59;;;16.58;62.36
58471;BME280;44258;51.288;12.068;2022-10-16T00:23:57;100134.94;;;16.63;62.16
58471;BME280;44258;51.288;12.068;2022-10-16T00:26:26;100139.38;;;16.64;62.15
58471;BME280;44258;51.288;12.068;2022-10-16T00:28:53;100130.63;;;16.61;62.21
58471;BME280;44258;51.288;12.068;2022-10-16T00:31:22;100142.22;;;16.63;62.32
58471;BME280;44258;51.288;12.068;2022-10-16T00:33:49;100143.66;;;16.67;62.08
58471;BME280;44258;51.288;12.068;2022-10-16T00:36:17;100142.16;;;16.74;62.10
58471;BME280;44258;51.288;12.068;2022-10-16T00:38:44;100145.75;;;16.74;61.79
58471;BME280;44258;51.288;12.068;2022-10-16T00:41:13;100148.44;;;16.74;61.66
58471;BME280;44258;51.288;12.068;2022-10-16T00:43:42;100148.34;;;16.76;61.79
58471;BME280;44258;51.288;12.068;2022-10-16T00:46:18;100143.16;;;16.73;62.08
58471;BME280;44258;51.288;12.068;2022-10-16T00:48:47;100143.03;;;16.95;61.31
58471;BME280;44258;51.288;12.068;2022-10-16T00:51:16;100133.09;;;16.85;61.04
58471;BME280;44258;51.288;12.068;2022-10-16T00:53:44;100123.91;;;16.76;61.42
58471;BME280;44258;51.288;12.068;2022-10-16T00:56:11;100117.72;;;16.74;61.49
58471;BME280;44258;51.288;12.068;2022-10-16T00:58:37;100136.00;;;16.72;61.72
58471;BME280;44258;51.288;12.068;2022-10-16T01:01:04;100136.97;;;16.71;61.83
58471;BME280;44258;51.288;12.068;2022-10-16T01:03:32;100141.69;;;16.69;62.06
58471;BME280;44258;51.288;12.068;2022-10-16T01:06:09;100140.22;;;16.65;62.08
58471;BME280;44258;51.288;12.068;2022-10-16T01:08:52;100133.09;;;16.64;61.96
58471;BME280;44258;51.288;12.068;2022-10-16T01:13:54;100136.31;;;16.58;62.21
58471;BME280;44258;51.288;12.068;2022-10-16T01:16:29;100137.94;;;16.49;62.61
58471;BME280;44258;51.288;12.068;2022-10-16T01:19:06;100143.88;;;16.43;62.54
58471;BME280;44258;51.288;12.068;2022-10-16T01:21:39;100140.22;;;16.32;63.09
58471;BME280;44258;51.288;12.068;2022-10-16T01:24:10;100151.22;;;16.31;63.22
58471;BME280;44258;51.288;12.068;2022-10-16T01:26:50;100158.47;;;16.30;63.14
58471;BME280;44258;51.288;12.068;2022-10-16T01:29:25;100162.28;;;16.28;63.20
58471;BME280;44258;51.288;12.068;2022-10-16T01:31:56;100165.63;;;16.20;63.34
58471;BME280;44258;51.288;12.068;2022-10-16T01:34:30;100173.44;;;16.02;64.56
58471;BME280;44258;51.288;12.068;2022-10-16T01:37:02;100170.34;;;16.07;64.32
58471;BME280;44258;51.288;12.068;2022-10-16T01:39:33;100176.00;;;16.15;64.47
58471;BME280;44258;51.288;12.068;2022-10-16T01:42:06;100174.03;;;16.17;64.22
58471;BME280;44258;51.288;12.068;2022-10-16T01:44:37;100171.81;;;16.11;64.55
58471;BME280;44258;51.288;12.068;2022-10-16T01:47:06;100172.28;;;16.16;64.79
58471;BME280;44258;51.288;12.068;2022-10-16T01:49:36;100168.47;;;16.19;64.48
58471;BME280;44258;51.288;12.068;2022-10-16T01:52:07;100164.16;;;16.16;64.85
58471;BME280;44258;51.288;12.068;2022-10-16T01:54:37;100160.63;;;16.04;65.55
58471;BME280;44258;51.288;12.068;2022-10-16T01:57:07;100151.75;;;16.02;65.84
58471;BME280;44258;51.288;12.068;2022-10-16T01:59:40;100158.03;;;16.03;65.76
58471;BME280;44258;51.288;12.068;2022-10-16T02:02:10;100146.56;;;16.10;65.47
58471;BME280;44258;51.288;12.068;2022-10-16T02:04:40;100147.41;;;16.11;65.35
58471;BME280;44258;51.288;12.068;2022-10-16T02:07:09;100141.94;;;16.22;64.98
58471;BME280;44258;51.288;12.068;2022-10-16T02:09:36;100138.25;;;16.23;64.75
58471;BME280;44258;51.288;12.068;2022-10-16T02:12:09;100142.22;;;16.19;65.14
58471;BME280;44258;51.288;12.068;2022-10-16T02:14:39;100146.28;;;16.13;65.38
58471;BME280;44258;51.288;12.068;2022-10-16T02:17:11;100156.00;;;16.16;65.05
58471;BME280;44258;51.288;12.068;2022-10-16T02:19:38;100159.84;;;16.13;65.22
58471;BME280;44258;51.288;12.068;2022-10-16T02:22:07;100159.84;;;16.13;65.14
58471;BME280;44258;51.288;12.068;2022-10-16T02:24:39;100184.16;;;16.15;65.19
58471;BME280;44258;51.288;12.068;2022-10-16T02:27:11;100184.88;;;16.06;65.44
58471;BME280;44258;51.288;12.068;2022-10-16T02:29:46;100175.19;;;15.92;65.86
58471;BME280;44258;51.288;12.068;2022-10-16T02:32:19;100179.97;;;16.00;65.49
58471;BME280;44258;51.288;12.068;2022-10-16T02:34:48;100185.28;;;15.90;65.72
58471;BME280;44258;51.288;12.068;2022-10-16T02:37:16;100184.41;;;15.89;65.96
58471;BME280;44258;51.288;12.068;2022-10-16T02:39:44;100187.63;;;15.94;65.69
58471;BME280;44258;51.288;12.068;2022-10-16T02:42:11;100175.03;;;15.93;65.85
58471;BME280;44258;51.288;12.068;2022-10-16T02:44:38;100175.78;;;15.95;65.59
58471;BME280;44258;51.288;12.068;2022-10-16T02:47:06;100175.41;;;16.00;65.32
58471;BME280;44258;51.288;12.068;2022-10-16T02:49:33;100172.44;;;16.03;65.31
58471;BME280;44258;51.288;12.068;2022-10-16T02:52:00;100187.47;;;16.07;65.05
58471;BME280;44258;51.288;12.068;2022-10-16T02:54:27;100189.81;;;16.12;64.85
58471;BME280;44258;51.288;12.068;2022-10-16T02:56:53;100186.63;;;16.07;64.78
58471;BME280;44258;51.288;12.068;2022-10-16T02:59:20;100196.47;;;16.08;64.75
58471;BME280;44258;51.288;12.068;2022-10-16T03:01:47;100197.84;;;16.02;64.82
58471;BME280;44258;51.288;12.068;2022-10-16T03:04:15;100200.56;;;16.02;64.96
58471;BME280;44258;51.288;12.068;2022-10-16T03:06:41;100196.84;;;16.03;64.94
58471;BME280;44258;51.288;12.068;2022-10-16T03:09:08;100194.41;;;16.00;65.01
58471;BME280;44258;51.288;12.068;2022-10-16T03:11:35;100186.00;;;16.03;64.96
58471;BME280;44258;51.288;12.068;2022-10-16T03:14:01;100190.56;;;16.03;64.56
58471;BME280;44258;51.288;12.068;2022-10-16T03:16:28;100199.34;;;16.06;64.72
58471;BME280;44258;51.288;12.068;2022-10-16T03:18:54;100204.75;;;16.06;64.57
58471;BME280;44258;51.288;12.068;2022-10-16T03:21:22;100207.06;;;16.00;64.67
58471;BME280;44258;51.288;12.068;2022-10-16T03:23:49;100207.97;;;16.00;64.43
58471;BME280;44258;51.288;12.068;2022-10-16T03:26:16;100215.72;;;15.93;64.77
58471;BME280;44258;51.288;12.068;2022-10-16T03:28:42;100216.94;;;15.89;64.97
58471;BME280;44258;51.288;12.068;2022-10-16T03:31:09;100223.00;;;15.93;64.74
58471;BME280;44258;51.288;12.068;2022-10-16T03:33:35;100219.53;;;15.91;64.83
58471;BME280;44258;51.288;12.068;2022-10-16T03:36:02;100220.66;;;15.88;64.79
58471;BME280;44258;51.288;12.068;2022-10-16T03:38:31;100213.88;;;15.83;64.86
58471;BME280;44258;51.288;12.068;2022-10-16T03:40:57;100204.38;;;15.88;64.82
58471;BME280;44258;51.288;12.068;2022-10-16T03:43:24;100204.00;;;15.93;64.51
58471;BME280;44258;51.288;12.068;2022-10-16T03:45:51;100207.56;;;15.93;64.51
58471;BME280;44258;51.288;12.068;2022-10-16T03:48:18;100189.09;;;15.99;64.47
58471;BME280;44258;51.288;12.068;2022-10-16T03:50:44;100191.81;;;15.99;64.45
58471;BME280;44258;51.288;12.068;2022-10-16T03:53:11;100191.19;;;15.95;64.46
58471;BME280;44258;51.288;12.068;2022-10-16T03:55:40;100195.88;;;15.93;64.75
58471;BME280;44258;51.288;12.068;2022-10-16T03:58:07;100203.91;;;15.94;64.50
58471;BME280;44258;51.288;12.068;2022-10-16T04:00:34;100193.03;;;15.94;64.39
58471;BME280;44258;51.288;12.068;2022-10-16T04:03:00;100188.34;;;15.85;64.72
58471;BME280;44258;51.288;12.068;2022-10-16T04:05:27;100194.28;;;15.79;65.08
58471;BME280;44258;51.288;12.068;2022-10-16T04:07:54;100190.81;;;15.77;65.11
58471;BME280;44258;51.288;12.068;2022-10-16T04:10:21;100198.94;;;15.77;65.11
58471;BME280;44258;51.288;12.068;2022-10-16T04:12:49;100204.13;;;15.69;65.18
58471;BME280;44258;51.288;12.068;2022-10-16T04:15:15;100198.72;;;15.69;65.17
58471;BME280;44258;51.288;12.068;2022-10-16T04:17:42;100214.22;;;15.67;65.47
58471;BME280;44258;51.288;12.068;2022-10-16T04:20:09;100230.13;;;15.71;65.26
58471;BME280;44258;51.288;12.068;2022-10-16T04:22:35;100238.13;;;15.73;65.27
58471;BME280;44258;51.288;12.068;2022-10-16T04:25:02;100238.41;;;15.70;65.28
58471;BME280;44258;51.288;12.068;2022-10-16T04:27:29;100237.16;;;15.74;65.27
58471;BME280;44258;51.288;12.068;2022-10-16T04:29:58;100245.31;;;15.74;64.98
58471;BME280;44258;51.288;12.068;2022-10-16T04:32:24;100235.06;;;15.78;64.93
58471;BME280;44258;51.288;12.068;2022-10-16T04:34:51;100240.97;;;15.71;65.06
58471;BME280;44258;51.288;12.068;2022-10-16T04:37:18;100237.28;;;15.72;65.26
58471;BME280;44258;51.288;12.068;2022-10-16T04:39:45;100251.09;;;15.81;64.97
58471;BME280;44258;51.288;12.068;2022-10-16T04:42:11;100256.78;;;15.89;64.59
58471;BME280;44258;51.288;12.068;2022-10-16T04:44:38;100250.75;;;15.97;64.24
58471;BME280;44258;51.288;12.068;2022-10-16T04:47:06;100270.69;;;15.95;64.31
58471;BME280;44258;51.288;12.068;2022-10-16T04:49:33;100270.94;;;16.04;64.10
58471;BME280;44258;51.288;12.068;2022-10-16T04:51:59;100277.72;;;16.09;63.71
58471;BME280;44258;51.288;12.068;2022-10-16T04:54:26;100283.28;;;16.08;63.68
58471;BME280;44258;51.288;12.068;2022-10-16T04:56:53;100283.28;;;16.08;63.65
58471;BME280;44258;51.288;12.068;2022-10-16T04:59:19;100287.47;;;16.12;63.61
58471;BME280;44258;51.288;12.068;2022-10-16T05:01:46;100296.59;;;16.11;63.72
58471;BME280;44258;51.288;12.068;2022-10-16T05:04:14;100295.34;;;16.04;63.69
58471;BME280;44258;51.288;12.068;2022-10-16T05:06:41;100294.13;;;15.97;63.87
58471;BME280;44258;51.288;12.068;2022-10-16T05:09:08;100298.94;;;15.93;64.22
58471;BME280;44258;51.288;12.068;2022-10-16T05:11:35;100278.97;;;15.94;63.90
58471;BME280;44258;51.288;12.068;2022-10-16T05:14:02;100282.16;;;15.99;63.86
58471;BME280;44258;51.288;12.068;2022-10-16T05:16:29;100291.91;;;16.02;63.69
58471;BME280;44258;51.288;12.068;2022-10-16T05:18:56;100300.78;;;16.04;63.57
58471;BME280;44258;51.288;12.068;2022-10-16T05:21:24;100295.13;;;16.07;63.48
58471;BME280;44258;51.288;12.068;2022-10-16T05:23:53;100299.53;;;16.08;63.31
58471;BME280;44258;51.288;12.068;2022-10-16T05:26:19;100295.75;;;16.10;63.21
58471;BME280;44258;51.288;12.068;2022-10-16T05:28:46;100296.59;;;16.11;63.10
58471;BME280;44258;51.288;12.068;2022-10-16T05:31:13;100299.31;;;16.11;63.02
58471;BME280;44258;51.288;12.068;2022-10-16T05:33:39;100297.94;;;16.05;63.23
58471;BME280;44258;51.288;12.068;2022-10-16T05:36:08;100301.88;;;16.01;63.45
58471;BME280;44258;51.288;12.068;2022-10-16T05:38:37;100305.34;;;16.03;63.38
58471;BME280;44258;51.288;12.068;2022-10-16T05:41:04;100294.00;;;16.09;63.09
58471;BME280;44258;51.288;12.068;2022-10-16T05:43:31;100302.88;;;16.11;63.13
58471;BME280;44258;51.288;12.068;2022-10-16T05:46:00;100309.31;;;16.10;63.09
58471;BME280;44258;51.288;12.068;2022-10-16T05:48:27;100309.69;;;16.17;62.94
58471;BME280;44258;51.288;12.068;2022-10-16T05:50:58;100318.78;;;16.16;62.89
58471;BME280;44258;51.288;12.068;2022-10-16T05:53:25;100323.25;;;16.17;62.65
58471;BME280;44258;51.288;12.068;2022-10-16T05:55:54;100318.31;;;16.11;62.95
58471;BME280;44258;51.288;12.068;2022-10-16T05:58:22;100324.59;;;16.11;63.12
58471;BME280;44258;51.288;12.068;2022-10-16T06:00:55;100338.41;;;16.08;63.37
58471;BME280;44258;51.288;12.068;2022-10-16T06:03:22;100329.03;;;16.12;63.09
58471;BME280;44258;51.288;12.068;2022-10-16T06:05:49;100325.59;;;16.10;62.95
58471;BME280;44258;51.288;12.068;2022-10-16T06:08:16;100326.56;;;16.09;63.28
58471;BME280;44258;51.288;12.068;2022-10-16T06:10:44;100320.53;;;16.17;63.21
58471;BME280;44258;51.288;12.068;2022-10-16T06:13:12;100339.13;;;16.22;63.08
58471;BME280;44258;51.288;12.068;2022-10-16T06:15:40;100337.78;;;16.27;62.88
58471;BME280;44258;51.288;12.068;2022-10-16T06:18:08;100335.09;;;16.27;62.92
58471;BME280;44258;51.288;12.068;2022-10-16T06:20:35;100339.50;;;16.28;62.91
58471;BME280;44258;51.288;12.068;2022-10-16T06:23:01;100339.66;;;16.27;62.83
58471;BME280;44258;51.288;12.068;2022-10-16T06:25:29;100347.06;;;16.25;63.16
58471;BME280;44258;51.288;12.068;2022-10-16T06:27:56;100342.47;;;16.25;63.04
58471;BME280;44258;51.288;12.068;2022-10-16T06:30:24;100349.03;;;16.23;63.21
58471;BME280;44258;51.288;12.068;2022-10-16T06:32:51;100352.97;;;16.19;63.36
58471;BME280;44258;51.288;12.068;2022-10-16T06:35:17;100349.38;;;16.18;63.30
58471;BME280;44258;51.288;12.068;2022-10-16T06:37:44;100366.28;;;16.22;63.27
58471;BME280;44258;51.288;12.068;2022-10-16T06:40:11;100357.38;;;16.20;63.34
58471;BME280;44258;51.288;12.068;2022-10-16T06:42:39;100359.47;;;16.16;63.64
58471;BME280;44258;51.288;12.068;2022-10-16T06:45:07;100358.25;;;16.20;63.54
58471;BME280;44258;51.288;12.068;2022-10-16T06:47:35;100349.88;;;16.23;63.69
58471;BME280;44258;51.288;12.068;2022-10-16T06:50:02;100359.47;;;16.16;64.02
58471;BME280;44258;51.288;12.068;2022-10-16T06:52:29;100356.66;;;16.06;64.51
58471;BME280;44258;51.288;12.068;2022-10-16T06:54:55;100349.47;;;16.05;64.91
58471;BME280;44258;51.288;12.068;2022-10-16T06:57:22;100340.22;;;16.08;64.72
58471;BME280;44258;51.288;12.068;2022-10-16T06:59:49;100306.47;;;16.01;65.32
58471;BME280;44258;51.288;12.068;2022-10-16T07:02:15;100308.16;;;16.02;65.26
58471;BME280;44258;51.288;12.068;2022-10-16T07:04:43;100303.75;;;16.12;65.20
58471;BME280;44258;51.288;12.068;2022-10-16T07:07:10;100325.34;;;16.25;65.04
58471;BME280;44258;51.288;12.068;2022-10-16T07:09:36;100337.97;;;16.37;65.13
58471;BME280;44258;51.288;12.068;2022-10-16T07:12:04;100358.06;;;16.46;65.32
58471;BME280;44258;51.288;12.068;2022-10-16T07:14:30;100353.38;;;16.59;64.70
58471;BME280;44258;51.288;12.068;2022-10-16T07:16:57;100360.75;;;16.68;64.68
58471;BME280;44258;51.288;12.068;2022-10-16T07:19:24;100366.31;;;16.78;64.75
58471;BME280;44258;51.288;12.068;2022-10-16T07:21:52;100390.13;;;16.86;64.38
58471;BME280;44258;51.288;12.068;2022-10-16T07:24:18;100380.59;;;16.91;64.11
58471;BME280;44258;51.288;12.068;2022-10-16T07:26:45;100391.34;;;16.93;64.06
58471;BME280;44258;51.288;12.068;2022-10-16T07:29:14;100379.25;;;16.86;64.32
58471;BME280;44258;51.288;12.068;2022-10-16T07:31:41;100384.94;;;16.83;64.58
58471;BME280;44258;51.288;12.068;2022-10-16T07:34:08;100389.63;;;16.81;64.60
58471;BME280;44258;51.288;12.068;2022-10-16T07:36:35;100389.28;;;16.74;65.19
58471;BME280;44258;51.288;12.068;2022-10-16T07:39:03;100392.09;;;16.84;65.25
58471;BME280;44258;51.288;12.068;2022-10-16T07:41:30;100392.69;;;16.87;65.03
58471;BME280;44258;51.288;12.068;2022-10-16T07:43:58;100393.19;;;16.92;64.93
58471;BME280;44258;51.288;12.068;2022-10-16T07:46:26;100392.31;;;17.03;64.85
58471;BME280;44258;51.288;12.068;2022-10-16T07:48:53;100395.75;;;17.17;64.61
58471;BME280;44258;51.288;12.068;2022-10-16T07:51:22;100402.06;;;17.28;64.36
58471;BME280;44258;51.288;12.068;2022-10-16T07:53:49;100404.09;;;17.36;64.34
58471;BME280;44258;51.288;12.068;2022-10-16T07:56:19;100406.19;;;17.44;64.33
58471;BME280;44258;51.288;12.068;2022-10-16T07:58:46;100403.88;;;17.71;63.87
58471;BME280;44258;51.288;12.068;2022-10-16T08:01:15;100403.44;;;17.87;63.32
58471;BME280;44258;51.288;12.068;2022-10-16T08:03:43;100421.25;;;18.01;63.27
58471;BME280;44258;51.288;12.068;2022-10-16T08:06:10;100413.31;;;18.09;62.43
58471;BME280;44258;51.288;12.068;2022-10-16T08:08:36;100419.50;;;18.11;62.18
58471;BME280;44258;51.288;12.068;2022-10-16T08:11:03;100442.19;;;18.22;62.18
58471;BME280;44258;51.288;12.068;2022-10-16T08:13:32;100445.81;;;18.22;62.29
58471;BME280;44258;51.288;12.068;2022-10-16T08:15:58;100449.03;;;18.37;61.75
58471;BME280;44258;51.288;12.068;2022-10-16T08:18:26;100455.09;;;18.41;61.64
58471;BME280;44258;51.288;12.068;2022-10-16T08:20:57;100451.56;;;18.29;61.44
58471;BME280;44258;51.288;12.068;2022-10-16T08:23:24;100441.47;;;18.41;61.30
58471;BME280;44258;51.288;12.068;2022-10-16T08:25:51;100438.28;;;18.57;61.14
58471;BME280;44258;51.288;12.068;2022-10-16T08:28:18;100444.47;;;18.68;60.35
58471;BME280;44258;51.288;12.068;2022-10-16T08:30:46;100449.38;;;18.74;60.16
58471;BME280;44258;51.288;12.068;2022-10-16T08:33:13;100463.50;;;18.89;60.17
58471;BME280;44258;51.288;12.068;2022-10-16T08:35:40;100468.06;;;19.10;59.90
58471;BME280;44258;51.288;12.068;2022-10-16T08:38:07;100470.56;;;19.32;59.89
58471;BME280;44258;51.288;12.068;2022-10-16T08:40:36;100460.66;;;19.22;59.50
58471;BME280;44258;51.288;12.068;2022-10-16T08:43:27;100469.06;;;19.09;59.13
58471;BME280;44258;51.288;12.068;2022-10-16T08:46:12;100474.09;;;19.13;59.37
58471;BME280;44258;51.288;12.068;2022-10-16T08:48:45;100484.22;;;19.32;59.30
58471;BME280;44258;51.288;12.068;2022-10-16T08:51:18;100479.19;;;19.38;59.43
58471;BME280;44258;51.288;12.068;2022-10-16T08:53:49;100485.56;;;19.17;59.28
58471;BME280;44258;51.288;12.068;2022-10-16T08:56:18;100481.06;;;19.37;58.87
58471;BME280;44258;51.288;12.068;2022-10-16T08:58:45;100499.72;;;19.42;58.70
58471;BME280;44258;51.288;12.068;2022-10-16T09:01:15;100502.44;;;19.32;58.51
58471;BME280;44258;51.288;12.068;2022-10-16T09:03:57;100500.44;;;19.34;58.91
58471;BME280;44258;51.288;12.068;2022-10-16T09:06:40;100507.03;;;19.41;58.36
58471;BME280;44258;51.288;12.068;2022-10-16T09:12:18;100509.22;;;19.47;58.68
58471;BME280;44258;51.288;12.068;2022-10-16T09:15:01;100512.19;;;19.34;58.14
58471;BME280;44258;51.288;12.068;2022-10-16T09:17:44;100506.78;;;19.54;58.33
58471;BME280;44258;51.288;12.068;2022-10-16T09:20:26;100493.22;;;19.73;58.13
58471;BME280;44258;51.288;12.068;2022-10-16T09:23:10;100510.19;;;19.77;57.65
58471;BME280;44258;51.288;12.068;2022-10-16T09:25:39;100496.38;;;19.88;57.50
58471;BME280;44258;51.288;12.068;2022-10-16T09:28:08;100499.09;;;19.79;57.74
58471;BME280;44258;51.288;12.068;2022-10-16T09:30:35;100493.88;;;19.66;57.76
58471;BME280;44258;51.288;12.068;2022-10-16T09:33:06;100504.63;;;19.58;58.01
58471;BME280;44258;51.288;12.068;2022-10-16T09:35:37;100517.34;;;19.78;57.74
58471;BME280;44258;51.288;12.068;2022-10-16T09:38:05;100514.34;;;19.91;56.96
58471;BME280;44258;51.288;12.068;2022-10-16T09:40:34;100506.59;;;19.96;56.62
58471;BME280;44258;51.288;12.068;2022-10-16T09:43:10;100504.28;;;19.91;57.08
58471;BME280;44258;51.288;12.068;2022-10-16T09:45:40;100506.72;;;19.94;56.45
58471;BME280;44258;51.288;12.068;2022-10-16T09:48:12;100515.34;;;19.90;57.00
58471;BME280;44258;51.288;12.068;2022-10-16T09:50:39;100517.53;;;20.06;56.49
58471;BME280;44258;51.288;12.068;2022-10-16T09:53:10;100516.81;;;20.04;56.48
58471;BME280;44258;51.288;12.068;2022-10-16T09:55:47;100510.19;;;19.87;56.44
58471;BME280;44258;51.288;12.068;2022-10-16T09:58:14;100522.09;;;20.15;56.09
58471;BME280;44258;51.288;12.068;2022-10-16T10:00:42;100523.09;;;20.33;55.96
58471;BME280;44258;51.288;12.068;2022-10-16T10:03:35;100537.31;;;20.47;55.61
58471;BME280;44258;51.288;12.068;2022-10-16T10:06:13;100533.44;;;20.49;55.43
58471;BME280;44258;51.288;12.068;2022-10-16T10:08:41;100537.47;;;20.45;55.74
58471;BME280;44258;51.288;12.068;2022-10-16T10:11:18;100545.84;;;20.34;55.83
58471;BME280;44258;51.288;12.068;2022-10-16T10:13:45;100551.56;;;20.50;55.76
58471;BME280;44258;51.288;12.068;2022-10-16T10:16:11;100550.84;;;20.48;55.36
58471;BME280;44258;51.288;12.068;2022-10-16T10:18:39;100538.94;;;20.30;55.47
58471;BME280;44258;51.288;12.068;2022-10-16T10:21:14;100547.25;;;20.28;55.36
58471;BME280;44258;51.288;12.068;2022-10-16T10:23:43;100559.63;;;20.32;55.42
58471;BME280;44258;51.288;12.068;2022-10-16T10:26:12;100553.84;;;20.36;55.63
58471;BME280;44258;51.288;12.068;2022-10-16T10:28:50;100544.66;;;20.37;55.18
58471;BME280;44258;51.288;12.068;2022-10-16T10:31:25;100546.97;;;20.31;55.24
58471;BME280;44258;51.288;12.068;2022-10-16T10:34:16;100550.00;;;20.28;55.48
58471;BME280;44258;51.288;12.068;2022-10-16T10:36:52;100550.72;;;20.40;55.33
58471;BME280;44258;51.288;12.068;2022-10-16T10:39:26;100542.22;;;20.33;55.50
58471;BME280;44258;51.288;12.068;2022-10-16T10:42:08;100547.97;;;20.30;55.48
58471;BME280;44258;51.288;12.068;2022-10-16T10:47:44;100556.47;;;20.66;55.03
58471;BME280;44258;51.288;12.068;2022-10-16T10:50:22;100563.66;;;20.67;55.29
58471;BME280;44258;51.288;12.068;2022-10-16T10:52:59;100557.72;;;20.72;54.91
58471;BME280;44258;51.288;12.068;2022-10-16T10:55:33;100548.28;;;20.66;54.99
58471;BME280;44258;51.288;12.068;2022-10-16T10:58:24;100552.13;;;20.73;54.96
58471;BME280;44258;51.288;12.068;2022-10-16T11:00:58;100552.72;;;20.67;54.61
58471;BME280;44258;51.288;12.068;2022-10-16T11:03:46;100545.69;;;20.65;55.07
58471;BME280;44258;51.288;12.068;2022-10-16T11:06:22;100555.31;;;20.69;54.93
58471;BME280;44258;51.288;12.068;2022-10-16T11:08:55;100565.41;;;20.59;55.06
58471;BME280;44258;51.288;12.068;2022-10-16T11:11:30;100562.94;;;20.65;54.71
58471;BME280;44258;51.288;12.068;2022-10-16T11:14:02;100562.22;;;20.63;54.42
58471;BME280;44258;51.288;12.068;2022-10-16T11:16:34;100567.09;;;20.69;54.98
58471;BME280;44258;51.288;12.068;2022-10-16T11:19:11;100554.47;;;20.68;54.88
58471;BME280;44258;51.288;12.068;2022-10-16T11:21:44;100561.91;;;20.76;54.65
58471;BME280;44258;51.288;12.068;2022-10-16T11:24:18;100568.78;;;20.80;54.62
58471;BME280;44258;51.288;12.068;2022-10-16T11:26:49;100563.78;;;20.76;54.70
58471;BME280;44258;51.288;12.068;2022-10-16T11:29:19;100565.22;;;20.80;54.32
58471;BME280;44258;51.288;12.068;2022-10-16T11:31:51;100576.72;;;20.73;54.60
58471;BME280;44258;51.288;12.068;2022-10-16T11:34:25;100574.56;;;20.67;55.59
58471;BME280;44258;51.288;12.068;2022-10-16T11:36:59;100577.44;;;20.76;56.14
58471;BME280;44258;51.288;12.068;2022-10-16T11:39:29;100584.06;;;20.63;56.49
58471;BME280;44258;51.288;12.068;2022-10-16T11:42:02;100588.50;;;20.35;57.11
58471;BME280;44258;51.288;12.068;2022-10-16T11:44:41;100587.66;;;20.44;56.75
58471;BME280;44258;51.288;12.068;2022-10-16T11:47:23;100596.13;;;20.51;57.13
58471;BME280;44258;51.288;12.068;2022-10-16T11:49:57;100593.84;;;20.37;57.48
58471;BME280;44258;51.288;12.068;2022-10-16T11:52:30;100595.56;;;20.28;57.61
58471;BME280;44258;51.288;12.068;2022-10-16T11:55:04;100582.19;;;20.25;58.16
58471;BME280;44258;51.288;12.068;2022-10-16T11:57:39;100591.06;;;20.17;58.42
58471;BME280;44258;51.288;12.068;2022-10-16T12:00:10;100598.53;;;20.15;58.23
58471;BME280;44258;51.288;12.068;2022-10-16T12:02:53;100609.47;;;20.15;58.01
58471;BME280;44258;51.288;12.068;2022-10-16T12:05:27;100599.13;;;20.19;57.72
58471;BME280;44258;51.288;12.068;2022-10-16T12:08:06;100591.97;;;20.18;57.18
58471;BME280;44258;51.288;12.068;2022-10-16T12:10:34;100601.88;;;20.28;57.23
58471;BME280;44258;51.288;12.068;2022-10-16T12:13:03;100597.72;;;20.34;56.79
58471;BME280;44258;51.288;12.068;2022-10-16T12:15:31;100606.63;;;20.36;56.63
58471;BME280;44258;51.288;12.068;2022-10-16T12:17:58;100604.19;;;20.33;56.74
58471;BME280;44258;51.288;12.068;2022-10-16T12:20:27;100601.03;;;20.28;56.80
58471;BME280;44258;51.288;12.068;2022-10-16T12:22:56;100602.72;;;20.19;56.81
58471;BME280;44258;51.288;12.068;2022-10-16T12:25:28;100604.91;;;20.16;57.09
58471;BME280;44258;51.288;12.068;2022-10-16T12:27:57;100609.03;;;20.10;56.78
58471;BME280;44258;51.288;12.068;2022-10-16T12:30:27;100607.03;;;20.12;56.77
58471;BME280;44258;51.288;12.068;2022-10-16T12:32:55;100607.31;;;20.19;56.58
58471;BME280;44258;51.288;12.068;2022-10-16T12:35:26;100614.69;;;20.28;56.46
58471;BME280;44258;51.288;12.068;2022-10-16T12:37:54;100620.84;;;20.20;56.80
58471;BME280;44258;51.288;12.068;2022-10-16T12:40:27;100622.56;;;20.21;56.90
58471;BME280;44258;51.288;12.068;2022-10-16T12:42:55;100622.88;;;20.28;56.33
58471;BME280;44258;51.288;12.068;2022-10-16T12:45:28;100616.53;;;20.27;56.49
58471;BME280;44258;51.288;12.068;2022-10-16T12:47:57;100625.44;;;20.20;56.20
58471;BME280;44258;51.288;12.068;2022-10-16T12:50:27;100617.41;;;20.28;56.33
58471;BME280;44258;51.288;12.068;2022-10-16T12:52:56;100625.16;;;20.32;56.32
58471;BME280;44258;51.288;12.068;2022-10-16T12:55:23;100621.72;;;20.30;56.40
58471;BME280;44258;51.288;12.068;2022-10-16T12:58:03;100620.53;;;20.23;56.49
58471;BME280;44258;51.288;12.068;2022-10-16T13:00:40;100621.00;;;20.28;56.67
58471;BME280;44258;51.288;12.068;2022-10-16T13:03:29;100618.28;;;20.38;56.31